Time;durP1;ratioP1;P1;durP2;ratioP2;P2;SDS_P1;SDS_P2;PMS_P1;PMS_P2;Temp;Humidity;BMP_temperature;BMP_pressure;BME280_temperature;BME280_humidity;BME280_pressure;Samples;Min_cycle;Max_cycle;Signal;HPM_P1;HPM_P2
2021/05/29 00:00:39;;;;;;;;;;;;;;;20.37;54.66;99850.91;2057961;28;19922;-49
2021/05/29 00:01:39;;;;;;;;;;;;;;;20.35;54.63;99851.06;2057555;28;19918;-52
2021/05/29 00:02:39;;;;;;;;;;;;;;;20.37;54.78;99856.38;2058166;28;20359;-48
2021/05/29 00:03:40;;;;;;;;;;;;;;;20.36;54.78;99855.53;2056639;28;19921;-50
2021/05/29 00:04:40;;;;;;;;;;;;;;;20.35;54.75;99857.38;2057719;28;20272;-49
2021/05/29 00:05:41;;;;;;;;;;;;;;;20.36;54.81;99858.28;2057811;28;19961;-52
2021/05/29 00:06:41;;;;;;;;;;;;;;;20.36;54.76;99858.28;2057455;28;19920;-53
2021/05/29 00:07:41;;;;;;;;;;;;;;;20.37;54.75;99854.50;2058048;28;19914;-50
2021/05/29 00:08:42;;;;;;;;;;;;;;;20.37;54.78;99862.72;2056837;28;19968;-50
2021/05/29 00:09:42;;;;;;;;;;;;;;;20.37;54.59;99861.84;2057822;28;19914;-51
2021/05/29 00:10:47;;;;;;;;;;;;;;;20.36;54.71;99861.00;2053104;28;19925;-51
2021/05/29 00:11:47;;;;;;;;;;;;;;;20.37;54.73;99861.84;2056500;28;20221;-50
2021/05/29 00:12:47;;;;;;;;;;;;;;;20.35;54.94;99853.81;2057850;28;19921;-49
2021/05/29 00:13:48;;;;;;;;;;;;;;;20.35;54.80;99860.13;2057462;28;19914;-50
2021/05/29 00:14:48;;;;;;;;;;;;;;;20.35;54.84;99856.53;2057704;28;20017;-49
2021/05/29 00:15:49;;;;;;;;;;;;;;;20.36;54.65;99852.78;2056809;28;20230;-50
2021/05/29 00:16:49;;;;;;;;;;;;;;;20.35;54.68;99853.81;2057399;28;19914;-50
2021/05/29 00:17:50;;;;;;;;;;;;;;;20.35;54.88;99856.53;2057871;28;19918;-52
2021/05/29 00:18:50;;;;;;;;;;;;;;;20.35;54.73;99853.81;2057442;28;19914;-48
2021/05/29 00:19:50;;;;;;;;;;;;;;;20.35;54.71;99859.28;2057078;28;19924;-49
2021/05/29 00:20:51;;;;;;;;;;;;;;;20.35;54.77;99859.28;2057062;28;19914;-51
2021/05/29 00:21:51;;;;;;;;;;;;;;;20.35;54.76;99856.53;2057148;28;19918;-49
2021/05/29 00:22:51;;;;;;;;;;;;;;;20.35;54.85;99853.81;2057920;28;19914;-48
2021/05/29 00:23:52;;;;;;;;;;;;;;;20.34;54.74;99852.94;2057014;28;19948;-51
2021/05/29 00:24:52;;;;;;;;;;;;;;;20.34;54.92;99846.63;2057921;28;20280;-50
2021/05/29 00:25:52;;;;;;;;;;;;;;;20.34;54.68;99852.94;2056624;28;19925;-49
2021/05/29 00:26:52;;;;;;;;;;;;;;;20.35;54.89;99853.81;2055661;28;19934;-50
2021/05/29 00:27:53;;;;;;;;;;;;;;;20.34;54.88;99846.63;2055708;28;19928;-48
2021/05/29 00:28:53;;;;;;;;;;;;;;;20.34;54.89;99857.56;2057626;28;19914;-47
2021/05/29 00:29:53;;;;;;;;;;;;;;;20.34;54.82;99858.41;2057298;28;19939;-52
2021/05/29 00:30:54;;;;;;;;;;;;;;;20.34;54.91;99852.94;2056960;28;19914;-49
2021/05/29 00:31:54;;;;;;;;;;;;;;;20.35;54.76;99853.81;2057536;28;19960;-48
2021/05/29 00:32:55;;;;;;;;;;;;;;;20.33;54.88;99851.25;2056881;28;19918;-50
2021/05/29 00:33:56;;;;;;;;;;;;;;;20.34;54.83;99850.22;2057323;28;19936;-50
2021/05/29 00:34:56;;;;;;;;;;;;;;;20.34;54.92;99849.34;2057123;28;19914;-47
2021/05/29 00:35:56;;;;;;;;;;;;;;;20.34;54.91;99846.63;2056883;28;19922;-49
2021/05/29 00:36:57;;;;;;;;;;;;;;;20.34;54.76;99852.09;2057603;28;19914;-50
2021/05/29 00:37:57;;;;;;;;;;;;;;;20.34;54.85;99846.63;2057683;28;19949;-52
2021/05/29 00:38:57;;;;;;;;;;;;;;;20.35;54.92;99845.59;2057505;28;20233;-50
2021/05/29 00:39:57;;;;;;;;;;;;;;;20.33;54.94;99842.16;2057660;28;19917;-51
2021/05/29 00:40:58;;;;;;;;;;;;;;;20.32;54.78;99843.19;2053734;28;19920;-51
2021/05/29 00:41:58;;;;;;;;;;;;;;;20.33;54.75;99847.63;2057904;28;20146;-52
2021/05/29 00:42:59;;;;;;;;;;;;;;;20.33;54.92;99843.03;2056749;28;19975;-51
2021/05/29 00:43:59;;;;;;;;;;;;;;;20.33;54.90;99845.78;2057235;28;19914;-51
2021/05/29 00:45:00;;;;;;;;;;;;;;;20.33;54.94;99842.16;2056944;28;19914;-50
2021/05/29 00:46:00;;;;;;;;;;;;;;;20.33;54.73;99850.38;2048499;28;19924;-52
2021/05/29 00:47:03;;;;;;;;;;;;;;;20.33;54.80;99844.88;2055777;28;19921;-50
2021/05/29 00:48:03;;;;;;;;;;;;;;;20.33;54.76;99844.88;2055664;28;20013;-49
2021/05/29 00:49:04;;;;;;;;;;;;;;;20.33;54.78;99845.78;2057134;28;19926;-50
2021/05/29 00:50:08;;;;;;;;;;;;;;;20.33;54.89;99851.25;2057537;28;20338;-51
2021/05/29 00:51:09;;;;;;;;;;;;;;;20.33;54.79;99844.88;2057190;28;19937;-48
2021/05/29 00:52:10;;;;;;;;;;;;;;;20.34;54.76;99852.09;2057337;28;19914;-50
2021/05/29 00:53:10;;;;;;;;;;;;;;;20.33;54.82;99847.63;2057499;28;19996;-49
2021/05/29 00:54:11;;;;;;;;;;;;;;;20.33;54.87;99847.63;2057054;28;19949;-50
2021/05/29 00:55:12;;;;;;;;;;;;;;;20.32;54.86;99843.19;2057005;28;19914;-52
2021/05/29 00:56:13;;;;;;;;;;;;;;;20.33;54.77;99844.88;2056290;28;19918;-48
2021/05/29 00:57:14;;;;;;;;;;;;;;;20.32;54.88;99849.50;2057702;28;20374;-51
2021/05/29 00:58:14;;;;;;;;;;;;;;;20.32;54.79;99843.19;2057086;28;19917;-48
2021/05/29 00:59:14;;;;;;;;;;;;;;;20.33;54.94;99847.63;2057918;28;19953;-50
2021/05/29 01:00:18;;;;;;;;;;;;;;;20.33;54.80;99850.38;2057124;28;19918;-49
2021/05/29 01:01:18;;;;;;;;;;;;;;;20.33;54.90;99845.78;2056982;28;20008;-48
2021/05/29 01:02:18;;;;;;;;;;;;;;;20.34;54.97;99841.16;2057539;28;19922;-52
2021/05/29 01:03:19;;;;;;;;;;;;;;;20.32;54.80;99837.72;2056963;28;19946;-52
2021/05/29 01:04:19;;;;;;;;;;;;;;;20.33;54.90;99847.63;2056786;28;19920;-51
2021/05/29 01:05:20;;;;;;;;;;;;;;;20.32;54.97;99838.56;2055751;28;19914;-48
2021/05/29 01:06:20;;;;;;;;;;;;;;;20.32;54.97;99845.91;2052625;28;20594;-52
2021/05/29 01:07:21;;;;;;;;;;;;;;;20.32;55.03;99840.44;2057556;28;19913;-52
2021/05/29 01:08:24;;;;;;;;;;;;;;;20.33;54.98;99839.41;2056172;28;19920;-48
2021/05/29 01:09:24;;;;;;;;;;;;;;;20.33;55.02;99833.94;2056879;28;20395;-51
2021/05/29 01:10:25;;;;;;;;;;;;;;;20.33;54.87;99836.69;2052527;28;19988;-48
2021/05/29 01:11:25;;;;;;;;;;;;;;;20.32;54.85;99835.81;2047778;28;19962;-50
2021/05/29 01:12:25;;;;;;;;;;;;;;;20.33;54.99;99833.94;2055828;28;19914;-52
2021/05/29 01:13:32;;;;;;;;;;;;;;;20.32;54.82;99833.09;2056859;28;20592;-48
2021/05/29 01:14:33;;;;;;;;;;;;;;;20.32;54.83;99832.25;2057260;28;19966;-51
2021/05/29 01:15:37;;;;;;;;;;;;;;;20.32;54.85;99834.97;2056675;28;19914;-48
2021/05/29 01:17:39;;;;;;;;;;;;;;;20.32;55.01;99826.75;2057033;28;20265;-48
2021/05/29 01:18:40;;;;;;;;;;;;;;;20.31;54.91;99822.31;2055745;28;19956;-49
2021/05/29 01:19:40;;;;;;;;;;;;;;;20.32;54.90;99832.25;2057651;28;19964;-50
2021/05/29 01:20:41;;;;;;;;;;;;;;;20.31;54.88;99836.00;2056836;28;20316;-48
2021/05/29 01:21:41;;;;;;;;;;;;;;;20.32;55.03;99832.25;2056746;28;19914;-52
2021/05/29 01:22:50;;;;;;;;;;;;;;;20.32;54.78;99830.34;2057216;28;20388;-51
2021/05/29 01:23:50;;;;;;;;;;;;;;;20.33;54.80;99833.94;2056864;28;19925;-52
2021/05/29 01:24:50;;;;;;;;;;;;;;;20.31;54.96;99823.19;2051965;28;19993;-50
2021/05/29 01:25:51;;;;;;;;;;;;;;;20.31;55.05;99831.38;2051839;28;21286;-51
2021/05/29 01:26:52;;;;;;;;;;;;;;;20.32;54.96;99832.25;2054467;28;19937;-51
2021/05/29 01:27:55;;;;;;;;;;;;;;;20.32;54.92;99832.25;2057320;28;19921;-51
2021/05/29 01:28:56;;;;;;;;;;;;;;;20.31;54.99;99825.91;2056404;28;19918;-49
2021/05/29 01:29:57;;;;;;;;;;;;;;;20.31;54.97;99825.06;2056642;28;19918;-49
2021/05/29 01:31:01;;;;;;;;;;;;;;;20.32;55.04;99826.75;2056623;28;20197;-53
2021/05/29 01:32:04;;;;;;;;;;;;;;;20.31;55.01;99828.66;2056941;28;20027;-48
2021/05/29 01:33:05;;;;;;;;;;;;;;;20.31;54.88;99825.91;2055378;28;19937;-51
2021/05/29 01:34:05;;;;;;;;;;;;;;;20.32;55.01;99832.25;2052899;28;19921;-49
2021/05/29 01:35:08;;;;;;;;;;;;;;;20.32;54.90;99837.72;2056515;28;19948;-52
2021/05/29 01:36:10;;;;;;;;;;;;;;;20.31;54.83;99830.53;2056538;28;19918;-51
2021/05/29 01:37:10;;;;;;;;;;;;;;;20.31;54.85;99830.53;2056283;28;19965;-51
2021/05/29 01:38:11;;;;;;;;;;;;;;;20.31;54.85;99830.53;2057194;28;19992;-51
2021/05/29 01:39:11;;;;;;;;;;;;;;;20.31;54.87;99836.00;2056566;28;20425;-51
2021/05/29 01:40:12;;;;;;;;;;;;;;;20.31;55.03;99836.00;2057053;28;19968;-50
2021/05/29 01:41:14;;;;;;;;;;;;;;;20.31;55.07;99830.53;2053138;28;19960;-49
2021/05/29 01:42:14;;;;;;;;;;;;;;;20.30;54.96;99834.28;2057075;28;19918;-47
2021/05/29 01:43:15;;;;;;;;;;;;;;;20.31;55.11;99836.84;2057195;28;19918;-48
2021/05/29 01:44:16;;;;;;;;;;;;;;;20.30;54.92;99834.28;2057068;28;20001;-52
2021/05/29 01:45:16;;;;;;;;;;;;;;;20.30;54.88;99840.59;2057266;28;19946;-49
2021/05/29 01:46:21;;;;;;;;;;;;;;;20.31;55.11;99839.59;2056605;28;20376;-52
2021/05/29 01:47:21;;;;;;;;;;;;;;;20.30;55.11;99839.75;2057255;28;19992;-50
2021/05/29 01:48:21;;;;;;;;;;;;;;;20.30;54.98;99840.59;2057035;28;20268;-49
2021/05/29 01:49:22;;;;;;;;;;;;;;;20.30;54.90;99846.06;2056263;28;19989;-49
2021/05/29 01:50:23;;;;;;;;;;;;;;;20.31;55.01;99836.00;2056941;28;20505;-51
2021/05/29 01:51:24;;;;;;;;;;;;;;;20.31;55.07;99841.47;2056839;28;19914;-48
2021/05/29 01:52:44;;;;;;;;;;;;;;;20.31;55.18;99841.47;2056539;28;19918;-48
2021/05/29 01:53:44;;;;;;;;;;;;;;;20.29;54.94;99838.03;2057295;28;20503;-50
2021/05/29 01:54:44;;;;;;;;;;;;;;;20.30;55.06;99842.50;2056744;28;19929;-51
2021/05/29 01:55:47;;;;;;;;;;;;;;;20.31;54.99;99836.00;2055728;28;19929;-50
2021/05/29 01:56:47;;;;;;;;;;;;;;;20.30;55.06;99839.75;2057133;28;19914;-51
2021/05/29 01:57:48;;;;;;;;;;;;;;;20.30;55.10;99846.06;2056551;28;19914;-50
2021/05/29 01:58:48;;;;;;;;;;;;;;;20.30;55.10;99840.59;2056364;28;19985;-52
2021/05/29 01:59:51;;;;;;;;;;;;;;;20.30;55.21;99843.34;2056333;28;20364;-49
2021/05/29 02:00:51;;;;;;;;;;;;;;;20.30;55.24;99839.75;2056172;28;20565;-47
2021/05/29 02:01:51;;;;;;;;;;;;;;;20.30;55.27;99839.75;2057229;28;19913;-49
2021/05/29 02:02:52;;;;;;;;;;;;;;;20.30;55.21;99845.22;2056565;28;19962;-51
2021/05/29 02:03:53;;;;;;;;;;;;;;;20.29;55.07;99843.53;2056989;28;19918;-52
2021/05/29 02:04:53;;;;;;;;;;;;;;;20.30;55.18;99839.75;2056235;28;19914;-51
2021/05/29 02:05:54;;;;;;;;;;;;;;;20.28;55.15;99836.31;2056569;28;20053;-51
2021/05/29 02:06:54;;;;;;;;;;;;;;;20.29;55.29;99838.03;2057204;28;19914;-50
2021/05/29 02:07:57;;;;;;;;;;;;;;;20.29;55.21;99832.56;2056837;28;19918;-50
2021/05/29 02:08:57;;;;;;;;;;;;;;;20.29;55.31;99838.91;2057053;28;19950;-51
2021/05/29 02:09:58;;;;;;;;;;;;;;;20.30;55.29;99839.75;2057011;28;20005;-51
2021/05/29 02:10:58;;;;;;;;;;;;;;;20.29;55.27;99832.56;2055358;28;19914;-48
2021/05/29 02:11:58;;;;;;;;;;;;;;;20.29;55.41;99833.41;2053406;28;20400;-51
2021/05/29 02:13:00;;;;;;;;;;;;;;;20.29;55.22;99827.09;2056591;28;20237;-52
2021/05/29 02:14:00;;;;;;;;;;;;;;;20.28;55.36;99830.84;2056714;28;19957;-49
2021/05/29 02:15:01;;;;;;;;;;;;;;;20.28;55.24;99828.09;2056528;28;19973;-52
2021/05/29 02:16:02;;;;;;;;;;;;;;;20.29;55.39;99832.56;2056808;28;19944;-50
2021/05/29 02:17:03;;;;;;;;;;;;;;;20.28;55.31;99831.69;2056892;28;19929;-48
2021/05/29 02:18:04;;;;;;;;;;;;;;;20.28;55.32;99831.69;2055094;28;19974;-51
2021/05/29 02:19:04;;;;;;;;;;;;;;;20.29;55.22;99835.31;2051618;28;20392;-48
2021/05/29 02:20:06;;;;;;;;;;;;;;;20.28;55.31;99836.31;2055225;28;19926;-49
2021/05/29 02:21:14;;;;;;;;;;;;;;;20.28;55.22;99831.69;2057750;28;19914;-48
2021/05/29 02:22:16;;;;;;;;;;;;;;;20.29;55.45;99832.56;2057717;28;20025;-51
2021/05/29 02:23:19;;;;;;;;;;;;;;;20.28;55.27;99830.84;2058136;28;20128;-47
2021/05/29 02:24:19;;;;;;;;;;;;;;;20.29;55.44;99843.53;2058936;28;19989;-52
2021/05/29 02:25:19;;;;;;;;;;;;;;;20.29;55.28;99838.03;2057349;28;19914;-51
2021/05/29 02:26:21;;;;;;;;;;;;;;;20.28;55.47;99839.91;2058592;28;19921;-48
2021/05/29 02:27:21;;;;;;;;;;;;;;;20.28;55.35;99833.56;2058537;28;19933;-50
2021/05/29 02:28:22;;;;;;;;;;;;;;;20.28;55.27;99839.06;2056037;28;19922;-52
2021/05/29 02:29:23;;;;;;;;;;;;;;;20.28;55.53;99841.78;2050691;29;19930;-52
2021/05/29 02:30:24;;;;;;;;;;;;;;;20.27;55.30;99840.94;2056914;28;20000;-50
2021/05/29 02:31:24;;;;;;;;;;;;;;;20.28;55.37;99839.91;2057742;28;19914;-52
2021/05/29 02:32:24;;;;;;;;;;;;;;;20.28;55.60;99841.78;2057212;28;19940;-48
2021/05/29 02:33:25;;;;;;;;;;;;;;;20.29;55.37;99843.53;2058198;28;20046;-51
2021/05/29 02:34:26;;;;;;;;;;;;;;;20.28;55.53;99842.63;2057901;28;21001;-48
2021/05/29 02:35:26;;;;;;;;;;;;;;;20.29;55.37;99849.00;2057796;28;19926;-51
2021/05/29 02:36:26;;;;;;;;;;;;;;;20.28;55.40;99841.78;2058244;28;19914;-49
2021/05/29 02:37:27;;;;;;;;;;;;;;;20.28;55.42;99841.78;2057693;28;19925;-48
2021/05/29 02:38:28;;;;;;;;;;;;;;;20.29;55.21;99843.53;2058117;28;19914;-49
2021/05/29 02:39:28;;;;;;;;;;;;;;;20.28;55.53;99844.53;2058524;28;19918;-50
2021/05/29 02:40:28;;;;;;;;;;;;;;;20.29;55.53;99851.72;2058266;28;19914;-51
2021/05/29 02:41:29;;;;;;;;;;;;;;;20.28;55.39;99841.78;2058279;28;20206;-50
2021/05/29 02:42:29;;;;;;;;;;;;;;;20.28;55.56;99844.53;2054423;28;20041;-51
2021/05/29 02:43:29;;;;;;;;;;;;;;;20.28;55.44;99844.53;2057107;28;19949;-48
2021/05/29 02:44:30;;;;;;;;;;;;;;;20.26;55.38;99844.72;2058269;28;20368;-48
2021/05/29 02:45:30;;;;;;;;;;;;;;;20.26;55.37;99850.19;2058372;28;19976;-49
2021/05/29 02:46:30;;;;;;;;;;;;;;;20.28;55.49;99852.72;2058319;28;20276;-48
2021/05/29 02:47:31;;;;;;;;;;;;;;;20.26;55.53;99843.81;2058470;28;20642;-52
2021/05/29 02:48:31;;;;;;;;;;;;;;;20.28;55.39;99847.25;2058244;28;19914;-51
2021/05/29 02:49:32;;;;;;;;;;;;;;;20.27;55.57;99848.28;2058301;28;19941;-49
2021/05/29 02:50:32;;;;;;;;;;;;;;;20.27;55.56;99851.88;2057204;28;20106;-50
2021/05/29 02:51:32;;;;;;;;;;;;;;;20.28;55.27;99844.53;2058581;28;19921;-48
2021/05/29 02:52:33;;;;;;;;;;;;;;;20.27;55.46;99849.16;2058232;28;19914;-49
2021/05/29 02:53:33;;;;;;;;;;;;;;;20.26;55.41;99836.50;2058085;28;19922;-51
2021/05/29 02:54:40;;;;;;;;;;;;;;;20.27;55.63;99846.41;2057447;28;20533;-52
2021/05/29 02:55:42;;;;;;;;;;;;;;;20.26;55.54;99844.72;2057426;28;20137;-50
2021/05/29 02:56:42;;;;;;;;;;;;;;;20.27;55.61;99845.56;2058115;28;19957;-49
2021/05/29 02:57:42;;;;;;;;;;;;;;;20.27;55.44;99846.41;2058269;28;19935;-51
2021/05/29 02:58:43;;;;;;;;;;;;;;;20.25;55.58;99842.97;2057862;28;20354;-50
2021/05/29 02:59:43;;;;;;;;;;;;;;;20.25;55.49;99839.38;2057809;28;19963;-49
2021/05/29 03:00:44;;;;;;;;;;;;;;;20.26;55.54;99844.72;2058307;28;19921;-51
2021/05/29 03:01:45;;;;;;;;;;;;;;;20.26;55.59;99844.72;2058326;28;19918;-51
2021/05/29 03:02:45;;;;;;;;;;;;;;;20.25;55.62;99842.97;2057732;28;19921;-48
2021/05/29 03:03:46;;;;;;;;;;;;;;;20.27;55.69;99846.41;2058298;28;19953;-49
2021/05/29 03:04:46;;;;;;;;;;;;;;;20.26;55.67;99838.34;2057750;28;19964;-50
2021/05/29 03:05:47;;;;;;;;;;;;;;;20.26;55.56;99838.34;2057754;28;20257;-52
2021/05/29 03:06:47;;;;;;;;;;;;;;;20.26;55.62;99841.09;2058268;28;19924;-52
2021/05/29 03:07:50;;;;;;;;;;;;;;;20.25;55.65;99832.03;2058011;28;19918;-49
2021/05/29 03:08:51;;;;;;;;;;;;;;;20.25;55.56;99834.75;2058141;28;20383;-50
2021/05/29 03:09:51;;;;;;;;;;;;;;;20.26;55.64;99835.63;2058057;28;20024;-49
2021/05/29 03:10:53;;;;;;;;;;;;;;;20.26;55.73;99843.81;2058099;28;20301;-50
2021/05/29 03:11:54;;;;;;;;;;;;;;;20.26;55.59;99839.22;2052987;28;22101;-52
2021/05/29 03:12:54;;;;;;;;;;;;;;;20.26;55.56;99838.34;2054089;28;20764;-50
2021/05/29 03:13:54;;;;;;;;;;;;;;;20.26;55.70;99832.88;2058120;28;20293;-51
2021/05/29 03:14:55;;;;;;;;;;;;;;;20.26;55.66;99836.50;2057868;28;19918;-52
2021/05/29 03:15:55;;;;;;;;;;;;;;;20.26;55.65;99832.88;2058083;28;19984;-51
2021/05/29 03:16:55;;;;;;;;;;;;;;;20.26;55.49;99832.88;2057450;28;19924;-51
2021/05/29 03:17:56;;;;;;;;;;;;;;;20.26;55.65;99838.34;2057069;28;19921;-51
2021/05/29 03:18:56;;;;;;;;;;;;;;;20.25;55.76;99836.66;2050425;28;19918;-51
2021/05/29 03:19:57;;;;;;;;;;;;;;;20.25;55.72;99831.19;2056530;28;19924;-47
2021/05/29 03:21:00;;;;;;;;;;;;;;;20.25;55.58;99833.91;2058516;28;19921;-53
2021/05/29 03:22:01;;;;;;;;;;;;;;;20.25;55.68;99836.66;2057668;28;20325;-49
2021/05/29 03:23:01;;;;;;;;;;;;;;;20.25;55.57;99837.50;2057883;28;20001;-50
2021/05/29 03:24:02;;;;;;;;;;;;;;;20.25;55.71;99839.38;2058165;28;19961;-52
2021/05/29 03:25:03;;;;;;;;;;;;;;;20.24;55.66;99829.47;2057298;28;19966;-50
2021/05/29 03:26:03;;;;;;;;;;;;;;;20.25;55.64;99839.38;2058345;28;19956;-51
2021/05/29 03:27:04;;;;;;;;;;;;;;;20.25;55.71;99837.50;2057938;28;19921;-51
2021/05/29 03:28:04;;;;;;;;;;;;;;;20.26;55.63;99835.63;2057342;28;20004;-49
2021/05/29 03:29:05;;;;;;;;;;;;;;;20.25;55.68;99837.50;2058008;28;19929;-50
2021/05/29 03:30:08;;;;;;;;;;;;;;;20.25;55.60;99837.50;2057593;28;20334;-52
2021/05/29 03:31:08;;;;;;;;;;;;;;;20.25;55.68;99842.13;2058329;28;20232;-52
2021/05/29 03:32:09;;;;;;;;;;;;;;;20.24;55.77;99837.69;2057155;28;19914;-53
2021/05/29 03:33:11;;;;;;;;;;;;;;;20.25;55.72;99842.13;2057060;28;19914;-49
2021/05/29 03:34:11;;;;;;;;;;;;;;;20.25;55.84;99836.66;2058180;28;19957;-49
2021/05/29 03:35:12;;;;;;;;;;;;;;;20.25;55.62;99842.13;2057478;28;19918;-51
2021/05/29 03:36:13;;;;;;;;;;;;;;;20.25;55.79;99839.38;2057930;28;20024;-49
2021/05/29 03:37:13;;;;;;;;;;;;;;;20.25;55.65;99842.13;2057683;28;20024;-51
2021/05/29 03:38:13;;;;;;;;;;;;;;;20.25;55.79;99836.66;2058386;28;19914;-50
2021/05/29 03:39:13;;;;;;;;;;;;;;;20.24;55.81;99832.22;2057751;28;20055;-49
2021/05/29 03:40:15;;;;;;;;;;;;;;;20.24;55.75;99841.28;2057449;28;19921;-48
2021/05/29 03:41:15;;;;;;;;;;;;;;;20.24;55.82;99840.41;2058069;28;19922;-51
2021/05/29 03:42:15;;;;;;;;;;;;;;;20.24;55.80;99844.00;2057473;28;19965;-51
2021/05/29 03:43:16;;;;;;;;;;;;;;;20.25;55.78;99842.13;2054393;28;19917;-51
2021/05/29 03:44:16;;;;;;;;;;;;;;;20.25;55.81;99839.38;2058025;28;20029;-52
2021/05/29 03:45:17;;;;;;;;;;;;;;;20.23;55.63;99839.53;2057694;28;19914;-50
2021/05/29 03:46:18;;;;;;;;;;;;;;;20.25;55.74;99844.84;2051315;28;19919;-49
2021/05/29 03:47:18;;;;;;;;;;;;;;;20.24;55.67;99840.41;2057682;28;19921;-51
2021/05/29 03:48:18;;;;;;;;;;;;;;;20.24;55.81;99843.16;2057840;28;19973;-50
2021/05/29 03:49:19;;;;;;;;;;;;;;;20.24;55.83;99845.91;2057804;28;20292;-50
2021/05/29 03:50:21;;;;;;;;;;;;;;;20.24;55.84;99841.28;2056978;28;19933;-51
2021/05/29 03:51:21;;;;;;;;;;;;;;;20.24;55.74;99845.91;2057508;28;19918;-48
2021/05/29 03:52:22;;;;;;;;;;;;;;;20.23;55.70;99838.69;2058037;28;20304;-49
2021/05/29 03:53:22;;;;;;;;;;;;;;;20.23;55.66;99845.00;2057108;28;19918;-50
2021/05/29 03:54:23;;;;;;;;;;;;;;;20.24;55.89;99843.16;2057659;28;19960;-51
2021/05/29 03:55:23;;;;;;;;;;;;;;;20.24;55.76;99843.16;2056714;28;19988;-49
2021/05/29 03:56:24;;;;;;;;;;;;;;;20.24;55.76;99845.91;2058021;28;19988;-48
2021/05/29 03:57:24;;;;;;;;;;;;;;;20.24;55.91;99851.38;2056685;28;20288;-50
2021/05/29 03:58:25;;;;;;;;;;;;;;;20.24;55.79;99846.75;2058130;28;19918;-48
2021/05/29 03:59:25;;;;;;;;;;;;;;;20.24;55.69;99851.38;2056407;28;20391;-47
2021/05/29 04:00:25;;;;;;;;;;;;;;;20.24;55.90;99848.63;2057854;28;19925;-50
2021/05/29 04:01:25;;;;;;;;;;;;;;;20.24;55.82;99851.38;2057951;28;19914;-52
2021/05/29 04:02:26;;;;;;;;;;;;;;;20.24;55.85;99852.22;2057342;28;20012;-51
2021/05/29 04:03:26;;;;;;;;;;;;;;;20.24;55.93;99845.91;2057845;28;19960;-49
2021/05/29 04:04:27;;;;;;;;;;;;;;;20.25;55.88;99853.06;2056552;28;20268;-48
2021/05/29 04:05:27;;;;;;;;;;;;;;;20.23;55.96;99849.63;2057116;28;19990;-52
2021/05/29 04:06:27;;;;;;;;;;;;;;;20.24;55.95;99854.09;2056468;28;20012;-51
2021/05/29 04:07:28;;;;;;;;;;;;;;;20.24;55.89;99851.38;2055457;28;19914;-52
2021/05/29 04:08:28;;;;;;;;;;;;;;;20.24;55.90;99851.38;2057801;28;19917;-53
2021/05/29 04:09:29;;;;;;;;;;;;;;;20.24;55.99;99851.38;2056902;28;19920;-50
2021/05/29 04:10:32;;;;;;;;;;;;;;;20.23;55.90;99846.91;2057559;28;19910;-48
2021/05/29 04:11:33;;;;;;;;;;;;;;;20.23;56.10;99860.59;2057122;28;20199;-49
2021/05/29 04:12:33;;;;;;;;;;;;;;;20.24;56.10;99856.84;2057238;28;19925;-58
2021/05/29 04:13:33;;;;;;;;;;;;;;;20.23;56.34;99850.47;2053579;28;19961;-48
2021/05/29 04:14:34;;;;;;;;;;;;;;;20.24;56.16;99852.22;2056323;28;19945;-48
2021/05/29 04:15:35;;;;;;;;;;;;;;;20.25;56.13;99851.19;2057109;28;19918;-47
2021/05/29 04:16:35;;;;;;;;;;;;;;;20.29;56.13;99859.94;2056731;28;19917;-48
2021/05/29 04:17:36;;;;;;;;;;;;;;;20.28;56.17;99852.72;2057577;28;19924;-50
2021/05/29 04:18:36;;;;;;;;;;;;;;;20.28;56.11;99850.00;2055206;28;19925;-46
2021/05/29 04:19:37;;;;;;;;;;;;;;;20.28;56.23;99855.47;2057343;28;19945;-45
2021/05/29 04:20:37;;;;;;;;;;;;;;;20.28;56.24;99850.84;2057211;28;20222;-48
2021/05/29 04:21:37;;;;;;;;;;;;;;;20.27;56.10;99851.03;2056005;28;20137;-47
2021/05/29 04:22:38;;;;;;;;;;;;;;;20.27;56.13;99851.03;2056699;28;19937;-46
2021/05/29 04:23:38;;;;;;;;;;;;;;;20.25;56.22;99853.06;2056553;28;19914;-48
2021/05/29 04:24:39;;;;;;;;;;;;;;;20.24;56.33;99851.38;2057066;28;19918;-46
2021/05/29 04:25:39;;;;;;;;;;;;;;;20.25;56.49;99858.53;2055995;28;19930;-48
2021/05/29 04:26:39;;;;;;;;;;;;;;;20.24;56.30;99854.09;2056682;28;19918;-46
2021/05/29 04:27:40;;;;;;;;;;;;;;;20.23;56.48;99847.75;2057050;28;19924;-49
2021/05/29 04:28:40;;;;;;;;;;;;;;;20.23;56.48;99850.47;2062793;28;19940;-47
2021/05/29 04:29:41;;;;;;;;;;;;;;;20.23;56.48;99861.44;2063842;28;19917;-47
2021/05/29 04:30:41;;;;;;;;;;;;;;;20.23;56.47;99853.22;2057464;28;19921;-50
2021/05/29 04:31:41;;;;;;;;;;;;;;;20.23;56.35;99852.38;2056342;28;20430;-48
2021/05/29 04:32:42;;;;;;;;;;;;;;;20.23;56.45;99855.09;2057216;28;19921;-47
2021/05/29 04:33:42;;;;;;;;;;;;;;;20.24;56.24;99862.31;2056807;28;19918;-48
2021/05/29 04:34:42;;;;;;;;;;;;;;;20.24;56.25;99845.91;2054080;28;19920;-46
2021/05/29 04:35:43;;;;;;;;;;;;;;;20.23;56.27;99855.09;2056947;28;19964;-48
2021/05/29 04:36:43;;;;;;;;;;;;;;;20.23;56.30;99855.09;2056570;28;19914;-46
2021/05/29 04:37:44;;;;;;;;;;;;;;;20.23;56.30;99855.09;2053632;28;20392;-45
2021/05/29 04:38:44;;;;;;;;;;;;;;;20.23;56.45;99855.09;2057502;28;20044;-49
2021/05/29 04:39:45;;;;;;;;;;;;;;;20.23;56.35;99855.09;2056711;28;19980;-46
2021/05/29 04:40:45;;;;;;;;;;;;;;;20.23;56.41;99855.09;2057143;28;19914;-49
2021/05/29 04:41:45;;;;;;;;;;;;;;;20.24;56.20;99859.59;2056241;28;19968;-48
2021/05/29 04:42:46;;;;;;;;;;;;;;;20.25;56.33;99853.06;2056917;28;19910;-49
2021/05/29 04:43:46;;;;;;;;;;;;;;;20.23;56.22;99857.84;2054058;28;19936;-49
2021/05/29 04:44:46;;;;;;;;;;;;;;;20.24;56.30;99862.31;2057122;28;20099;-50
2021/05/29 04:45:48;;;;;;;;;;;;;;;20.24;56.20;99862.31;2056449;28;19940;-47
2021/05/29 04:46:52;;;;;;;;;;;;;;;20.24;56.22;99862.31;2056445;28;19985;-50
2021/05/29 04:47:53;;;;;;;;;;;;;;;20.24;56.23;99862.31;2056684;28;20001;-49
2021/05/29 04:48:54;;;;;;;;;;;;;;;20.24;56.31;99856.84;2056685;28;20487;-53
2021/05/29 04:49:54;;;;;;;;;;;;;;;20.24;56.12;99865.06;2053523;28;19914;-52
2021/05/29 04:51:13;;;;;;;;;;;;;;;20.25;56.12;99864.03;2057569;28;19918;-51
2021/05/29 04:52:14;;;;;;;;;;;;;;;20.26;56.20;99863.88;2055135;28;19997;-50
2021/05/29 04:53:14;;;;;;;;;;;;;;;20.26;56.17;99861.13;2056062;28;20636;-50
2021/05/29 04:54:15;;;;;;;;;;;;;;;20.29;56.13;99870.91;2053426;28;19964;-49
2021/05/29 04:55:16;;;;;;;;;;;;;;;20.29;56.19;99860.78;2056414;28;19917;-49
2021/05/29 04:56:16;;;;;;;;;;;;;;;20.30;56.11;99861.66;2057198;28;19920;-51
2021/05/29 04:57:17;;;;;;;;;;;;;;;20.30;55.99;99853.44;2056341;28;19929;-52
2021/05/29 04:58:17;;;;;;;;;;;;;;;20.30;55.88;99861.66;2056324;28;19958;-53
2021/05/29 04:59:18;;;;;;;;;;;;;;;20.30;56.16;99861.66;2056501;28;19918;-53
2021/05/29 05:00:18;;;;;;;;;;;;;;;20.31;56.18;99863.38;2057214;28;20210;-53
2021/05/29 05:01:18;;;;;;;;;;;;;;;20.32;56.21;99865.09;2057443;28;19942;-50
2021/05/29 05:02:19;;;;;;;;;;;;;;;20.33;56.06;99866.78;2056455;28;19921;-51
2021/05/29 05:03:19;;;;;;;;;;;;;;;20.33;56.23;99866.78;2056361;28;20353;-52
2021/05/29 05:04:19;;;;;;;;;;;;;;;20.33;56.12;99861.31;2057051;28;19921;-50
2021/05/29 05:05:19;;;;;;;;;;;;;;;20.33;56.42;99867.66;2056494;28;19948;-51
2021/05/29 05:06:20;;;;;;;;;;;;;;;20.33;56.41;99872.25;2053150;28;19926;-50
2021/05/29 05:07:20;;;;;;;;;;;;;;;20.33;56.22;99872.25;2055380;28;19918;-50
2021/05/29 05:08:20;;;;;;;;;;;;;;;20.34;56.44;99874.00;2057333;28;19953;-48
2021/05/29 05:09:21;;;;;;;;;;;;;;;20.34;56.25;99866.63;2056806;28;20088;-51
2021/05/29 05:10:21;;;;;;;;;;;;;;;20.34;56.17;99874.84;2056787;28;20137;-53
2021/05/29 05:11:22;;;;;;;;;;;;;;;20.34;56.21;99868.53;2057523;28;19921;-53
2021/05/29 05:12:22;;;;;;;;;;;;;;;20.33;56.42;99873.16;2055504;28;20288;-52
2021/05/29 05:13:25;;;;;;;;;;;;;;;20.34;56.45;99872.09;2054603;28;20033;-52
2021/05/29 05:14:26;;;;;;;;;;;;;;;20.34;56.30;99872.09;2056284;28;19910;-49
2021/05/29 05:15:26;;;;;;;;;;;;;;;20.34;56.41;99872.09;2055737;28;19925;-50
2021/05/29 05:16:27;;;;;;;;;;;;;;;20.34;56.57;99877.59;2054416;28;20228;-52
2021/05/29 05:17:27;;;;;;;;;;;;;;;20.35;56.53;99878.44;2054316;28;19917;-53
2021/05/29 05:18:27;;;;;;;;;;;;;;;20.35;56.51;99876.56;2056534;28;19914;-51